sensor_id;sensor_type;location;lat;lon;timestamp;P1;durP1;ratioP1;P2;durP2;ratioP2
24279;SDS011;12395;42.808;23.408;2023-07-29T00:00:25;4.57;;;2.50;;
24279;SDS011;12395;42.808;23.408;2023-07-29T00:02:52;4.15;;;2.50;;
24279;SDS011;12395;42.808;23.408;2023-07-29T00:05:18;3.47;;;2.50;;
24279;SDS011;12395;42.808;23.408;2023-07-29T00:07:43;3.53;;;2.42;;
24279;SDS011;12395;42.808;23.408;2023-07-29T00:10:09;4.95;;;2.47;;
24279;SDS011;12395;42.808;23.408;2023-07-29T00:12:34;4.43;;;2.53;;
24279;SDS011;12395;42.808;23.408;2023-07-29T00:15:00;3.35;;;2.45;;
24279;SDS011;12395;42.808;23.408;2023-07-29T00:17:25;3.90;;;2.40;;
24279;SDS011;12395;42.808;23.408;2023-07-29T00:19:51;3.60;;;2.45;;
24279;SDS011;12395;42.808;23.408;2023-07-29T00:22:16;4.30;;;2.58;;
24279;SDS011;12395;42.808;23.408;2023-07-29T00:24:41;3.17;;;2.47;;
24279;SDS011;12395;42.808;23.408;2023-07-29T00:27:07;3.90;;;2.75;;
24279;SDS011;12395;42.808;23.408;2023-07-29T00:29:32;3.45;;;2.70;;
24279;SDS011;12395;42.808;23.408;2023-07-29T00:31:58;3.55;;;2.47;;
24279;SDS011;12395;42.808;23.408;2023-07-29T00:34:23;4.70;;;2.70;;
24279;SDS011;12395;42.808;23.408;2023-07-29T00:36:48;3.22;;;2.60;;
24279;SDS011;12395;42.808;23.408;2023-07-29T00:39:14;3.20;;;2.10;;
24279;SDS011;12395;42.808;23.408;2023-07-29T00:41:39;4.20;;;2.50;;
24279;SDS011;12395;42.808;23.408;2023-07-29T00:44:05;3.17;;;2.30;;
24279;SDS011;12395;42.808;23.408;2023-07-29T00:46:30;3.47;;;2.45;;
24279;SDS011;12395;42.808;23.408;2023-07-29T00:48:59;2.97;;;2.42;;
24279;SDS011;12395;42.808;23.408;2023-07-29T00:51:25;5.40;;;2.55;;
24279;SDS011;12395;42.808;23.408;2023-07-29T00:53:50;4.15;;;2.60;;
24279;SDS011;12395;42.808;23.408;2023-07-29T00:56:15;3.75;;;2.50;;
24279;SDS011;12395;42.808;23.408;2023-07-29T00:58:41;4.07;;;2.53;;
24279;SDS011;12395;42.808;23.408;2023-07-29T01:01:07;3.60;;;2.58;;
24279;SDS011;12395;42.808;23.408;2023-07-29T01:03:33;4.15;;;2.40;;
24279;SDS011;12395;42.808;23.408;2023-07-29T01:06:13;5.83;;;2.73;;
24279;SDS011;12395;42.808;23.408;2023-07-29T01:08:51;3.35;;;2.50;;
24279;SDS011;12395;42.808;23.408;2023-07-29T01:16:55;4.90;;;2.50;;
24279;SDS011;12395;42.808;23.408;2023-07-29T01:20:11;3.10;;;2.20;;
24279;SDS011;12395;42.808;23.408;2023-07-29T01:22:31;4.40;;;2.63;;
24279;SDS011;12395;42.808;23.408;2023-07-29T01:24:58;4.82;;;2.72;;
24279;SDS011;12395;42.808;23.408;2023-07-29T01:27:24;6.18;;;2.60;;
24279;SDS011;12395;42.808;23.408;2023-07-29T01:29:50;5.65;;;2.58;;
24279;SDS011;12395;42.808;23.408;2023-07-29T01:32:17;4.38;;;2.85;;
24279;SDS011;12395;42.808;23.408;2023-07-29T01:34:48;4.50;;;2.50;;
24279;SDS011;12395;42.808;23.408;2023-07-29T01:37:22;4.80;;;2.70;;
24279;SDS011;12395;42.808;23.408;2023-07-29T01:39:51;5.05;;;3.10;;
24279;SDS011;12395;42.808;23.408;2023-07-29T01:42:19;8.30;;;3.10;;
24279;SDS011;12395;42.808;23.408;2023-07-29T01:44:45;4.50;;;2.80;;
24279;SDS011;12395;42.808;23.408;2023-07-29T01:47:11;6.60;;;2.92;;
24279;SDS011;12395;42.808;23.408;2023-07-29T01:49:36;4.13;;;2.92;;
24279;SDS011;12395;42.808;23.408;2023-07-29T01:52:02;4.80;;;3.00;;
24279;SDS011;12395;42.808;23.408;2023-07-29T01:54:27;4.55;;;3.05;;
24279;SDS011;12395;42.808;23.408;2023-07-29T01:56:53;3.45;;;2.70;;
24279;SDS011;12395;42.808;23.408;2023-07-29T01:59:18;4.40;;;3.00;;
24279;SDS011;12395;42.808;23.408;2023-07-29T02:01:43;4.55;;;2.88;;
24279;SDS011;12395;42.808;23.408;2023-07-29T02:04:11;4.22;;;2.70;;
24279;SDS011;12395;42.808;23.408;2023-07-29T02:06:36;4.93;;;2.90;;
24279;SDS011;12395;42.808;23.408;2023-07-29T02:09:02;4.35;;;2.80;;
24279;SDS011;12395;42.808;23.408;2023-07-29T02:11:29;4.90;;;3.13;;
24279;SDS011;12395;42.808;23.408;2023-07-29T02:13:55;4.43;;;2.95;;
24279;SDS011;12395;42.808;23.408;2023-07-29T02:16:21;5.85;;;3.05;;
24279;SDS011;12395;42.808;23.408;2023-07-29T02:18:47;5.55;;;3.10;;
24279;SDS011;12395;42.808;23.408;2023-07-29T02:21:14;4.93;;;3.20;;
24279;SDS011;12395;42.808;23.408;2023-07-29T02:23:40;5.20;;;3.30;;
24279;SDS011;12395;42.808;23.408;2023-07-29T02:26:05;4.40;;;3.03;;
24279;SDS011;12395;42.808;23.408;2023-07-29T02:28:31;4.93;;;3.10;;
24279;SDS011;12395;42.808;23.408;2023-07-29T02:31:20;3.97;;;2.72;;
24279;SDS011;12395;42.808;23.408;2023-07-29T02:33:46;5.68;;;3.28;;
24279;SDS011;12395;42.808;23.408;2023-07-29T02:36:12;4.88;;;3.20;;
24279;SDS011;12395;42.808;23.408;2023-07-29T02:38:38;5.17;;;3.10;;
24279;SDS011;12395;42.808;23.408;2023-07-29T02:41:04;4.85;;;3.10;;
24279;SDS011;12395;42.808;23.408;2023-07-29T02:43:29;5.72;;;3.15;;
24279;SDS011;12395;42.808;23.408;2023-07-29T02:45:55;6.50;;;3.50;;
24279;SDS011;12395;42.808;23.408;2023-07-29T02:48:20;4.35;;;3.10;;
24279;SDS011;12395;42.808;23.408;2023-07-29T02:50:45;5.10;;;3.17;;
24279;SDS011;12395;42.808;23.408;2023-07-29T02:53:11;5.78;;;3.20;;
24279;SDS011;12395;42.808;23.408;2023-07-29T02:55:39;5.80;;;3.33;;
24279;SDS011;12395;42.808;23.408;2023-07-29T02:58:05;4.72;;;3.03;;
24279;SDS011;12395;42.808;23.408;2023-07-29T03:00:31;5.80;;;3.45;;
24279;SDS011;12395;42.808;23.408;2023-07-29T03:02:58;4.63;;;3.20;;
24279;SDS011;12395;42.808;23.408;2023-07-29T03:05:23;5.45;;;3.40;;
24279;SDS011;12395;42.808;23.408;2023-07-29T03:07:51;4.90;;;3.28;;
24279;SDS011;12395;42.808;23.408;2023-07-29T03:10:16;5.35;;;3.42;;
24279;SDS011;12395;42.808;23.408;2023-07-29T03:12:42;4.82;;;2.97;;
24279;SDS011;12395;42.808;23.408;2023-07-29T03:15:07;6.75;;;3.33;;
24279;SDS011;12395;42.808;23.408;2023-07-29T03:17:33;4.15;;;3.10;;
24279;SDS011;12395;42.808;23.408;2023-07-29T03:19:58;5.75;;;3.47;;
24279;SDS011;12395;42.808;23.408;2023-07-29T03:22:24;5.55;;;3.28;;
24279;SDS011;12395;42.808;23.408;2023-07-29T03:24:49;5.45;;;3.25;;
24279;SDS011;12395;42.808;23.408;2023-07-29T03:27:14;4.88;;;3.28;;
24279;SDS011;12395;42.808;23.408;2023-07-29T03:29:41;5.88;;;3.42;;
24279;SDS011;12395;42.808;23.408;2023-07-29T03:32:06;5.10;;;3.30;;
24279;SDS011;12395;42.808;23.408;2023-07-29T03:34:32;5.25;;;3.28;;
24279;SDS011;12395;42.808;23.408;2023-07-29T03:36:58;6.03;;;3.20;;
24279;SDS011;12395;42.808;23.408;2023-07-29T03:39:24;5.35;;;3.17;;
24279;SDS011;12395;42.808;23.408;2023-07-29T03:41:49;4.82;;;2.83;;
24279;SDS011;12395;42.808;23.408;2023-07-29T03:44:15;3.58;;;2.67;;
24279;SDS011;12395;42.808;23.408;2023-07-29T03:46:40;5.45;;;3.08;;
24279;SDS011;12395;42.808;23.408;2023-07-29T03:49:05;4.63;;;3.08;;
24279;SDS011;12395;42.808;23.408;2023-07-29T03:51:31;4.35;;;3.10;;
24279;SDS011;12395;42.808;23.408;2023-07-29T03:53:56;4.97;;;3.30;;
24279;SDS011;12395;42.808;23.408;2023-07-29T03:56:21;4.68;;;3.30;;
24279;SDS011;12395;42.808;23.408;2023-07-29T03:58:47;6.03;;;3.47;;
24279;SDS011;12395;42.808;23.408;2023-07-29T04:01:15;5.55;;;3.20;;
24279;SDS011;12395;42.808;23.408;2023-07-29T04:03:40;5.78;;;3.20;;
24279;SDS011;12395;42.808;23.408;2023-07-29T04:06:06;4.65;;;3.10;;
24279;SDS011;12395;42.808;23.408;2023-07-29T04:08:32;5.63;;;3.25;;
24279;SDS011;12395;42.808;23.408;2023-07-29T04:10:57;5.65;;;3.40;;
24279;SDS011;12395;42.808;23.408;2023-07-29T04:13:23;5.35;;;2.90;;
24279;SDS011;12395;42.808;23.408;2023-07-29T04:15:49;9.63;;;3.33;;
24279;SDS011;12395;42.808;23.408;2023-07-29T04:18:14;5.63;;;3.30;;
24279;SDS011;12395;42.808;23.408;2023-07-29T04:20:39;4.80;;;3.10;;
24279;SDS011;12395;42.808;23.408;2023-07-29T04:23:05;4.88;;;3.22;;
24279;SDS011;12395;42.808;23.408;2023-07-29T04:25:30;4.35;;;3.20;;
24279;SDS011;12395;42.808;23.408;2023-07-29T04:27:56;4.35;;;3.22;;
24279;SDS011;12395;42.808;23.408;2023-07-29T04:30:23;5.75;;;3.50;;
24279;SDS011;12395;42.808;23.408;2023-07-29T04:32:48;6.90;;;3.70;;
24279;SDS011;12395;42.808;23.408;2023-07-29T04:35:15;5.45;;;3.85;;
24279;SDS011;12395;42.808;23.408;2023-07-29T04:37:40;5.50;;;3.35;;
24279;SDS011;12395;42.808;23.408;2023-07-29T04:40:06;5.65;;;3.80;;
24279;SDS011;12395;42.808;23.408;2023-07-29T04:42:32;7.50;;;3.90;;
24279;SDS011;12395;42.808;23.408;2023-07-29T04:44:58;5.95;;;3.90;;
24279;SDS011;12395;42.808;23.408;2023-07-29T04:47:23;6.55;;;3.90;;
24279;SDS011;12395;42.808;23.408;2023-07-29T04:49:49;6.70;;;4.35;;
24279;SDS011;12395;42.808;23.408;2023-07-29T04:52:14;6.43;;;3.95;;
24279;SDS011;12395;42.808;23.408;2023-07-29T04:54:40;5.57;;;3.78;;
24279;SDS011;12395;42.808;23.408;2023-07-29T04:57:05;6.80;;;3.95;;
24279;SDS011;12395;42.808;23.408;2023-07-29T04:59:31;6.85;;;3.70;;
24279;SDS011;12395;42.808;23.408;2023-07-29T05:01:56;5.97;;;3.55;;
24279;SDS011;12395;42.808;23.408;2023-07-29T05:04:24;6.70;;;3.65;;
24279;SDS011;12395;42.808;23.408;2023-07-29T05:06:49;7.88;;;3.85;;
24279;SDS011;12395;42.808;23.408;2023-07-29T05:09:16;5.05;;;3.50;;
24279;SDS011;12395;42.808;23.408;2023-07-29T05:11:43;5.95;;;3.75;;
24279;SDS011;12395;42.808;23.408;2023-07-29T05:14:10;5.88;;;3.90;;
24279;SDS011;12395;42.808;23.408;2023-07-29T05:16:36;6.38;;;3.90;;
24279;SDS011;12395;42.808;23.408;2023-07-29T05:19:02;7.40;;;4.25;;
24279;SDS011;12395;42.808;23.408;2023-07-29T05:21:27;6.07;;;4.10;;
24279;SDS011;12395;42.808;23.408;2023-07-29T05:23:52;8.93;;;4.70;;
24279;SDS011;12395;42.808;23.408;2023-07-29T05:26:18;7.22;;;3.95;;
24279;SDS011;12395;42.808;23.408;2023-07-29T05:28:43;5.55;;;3.90;;
24279;SDS011;12395;42.808;23.408;2023-07-29T05:31:09;7.68;;;3.90;;
24279;SDS011;12395;42.808;23.408;2023-07-29T05:33:34;7.97;;;4.07;;
24279;SDS011;12395;42.808;23.408;2023-07-29T05:36:01;6.93;;;4.20;;
24279;SDS011;12395;42.808;23.408;2023-07-29T05:38:26;8.10;;;4.32;;
24279;SDS011;12395;42.808;23.408;2023-07-29T05:40:52;7.10;;;4.30;;
24279;SDS011;12395;42.808;23.408;2023-07-29T05:43:17;7.22;;;4.15;;
24279;SDS011;12395;42.808;23.408;2023-07-29T05:45:43;6.80;;;4.43;;
24279;SDS011;12395;42.808;23.408;2023-07-29T05:48:09;6.28;;;4.28;;
24279;SDS011;12395;42.808;23.408;2023-07-29T05:50:34;9.53;;;4.27;;
24279;SDS011;12395;42.808;23.408;2023-07-29T05:53:00;7.85;;;4.30;;
24279;SDS011;12395;42.808;23.408;2023-07-29T05:55:25;7.53;;;4.22;;
24279;SDS011;12395;42.808;23.408;2023-07-29T05:57:51;11.43;;;4.70;;
24279;SDS011;12395;42.808;23.408;2023-07-29T06:00:16;7.40;;;4.53;;
24279;SDS011;12395;42.808;23.408;2023-07-29T06:02:42;6.55;;;4.30;;
24279;SDS011;12395;42.808;23.408;2023-07-29T06:05:07;7.45;;;4.35;;
24279;SDS011;12395;42.808;23.408;2023-07-29T06:07:33;7.63;;;4.50;;
24279;SDS011;12395;42.808;23.408;2023-07-29T06:09:59;7.03;;;4.25;;
24279;SDS011;12395;42.808;23.408;2023-07-29T06:12:25;7.53;;;4.70;;
24279;SDS011;12395;42.808;23.408;2023-07-29T06:14:50;8.10;;;5.05;;
24279;SDS011;12395;42.808;23.408;2023-07-29T06:17:15;7.70;;;4.80;;
24279;SDS011;12395;42.808;23.408;2023-07-29T06:19:41;8.55;;;5.20;;
24279;SDS011;12395;42.808;23.408;2023-07-29T06:22:06;8.07;;;5.05;;
24279;SDS011;12395;42.808;23.408;2023-07-29T06:24:31;7.55;;;4.65;;
24279;SDS011;12395;42.808;23.408;2023-07-29T06:26:57;7.53;;;4.53;;
24279;SDS011;12395;42.808;23.408;2023-07-29T06:29:23;8.38;;;4.65;;
24279;SDS011;12395;42.808;23.408;2023-07-29T06:31:48;8.07;;;4.82;;
24279;SDS011;12395;42.808;23.408;2023-07-29T06:36:41;6.40;;;4.47;;
24279;SDS011;12395;42.808;23.408;2023-07-29T06:39:07;7.15;;;4.50;;
24279;SDS011;12395;42.808;23.408;2023-07-29T06:41:32;7.07;;;4.07;;
24279;SDS011;12395;42.808;23.408;2023-07-29T06:43:57;6.68;;;4.10;;
24279;SDS011;12395;42.808;23.408;2023-07-29T06:46:23;8.13;;;4.07;;
24279;SDS011;12395;42.808;23.408;2023-07-29T06:48:48;6.90;;;4.03;;
24279;SDS011;12395;42.808;23.408;2023-07-29T06:51:13;7.45;;;3.95;;
24279;SDS011;12395;42.808;23.408;2023-07-29T06:53:39;6.40;;;4.07;;
24279;SDS011;12395;42.808;23.408;2023-07-29T06:56:04;6.00;;;3.72;;
24279;SDS011;12395;42.808;23.408;2023-07-29T06:58:30;6.97;;;4.07;;
24279;SDS011;12395;42.808;23.408;2023-07-29T07:00:55;6.22;;;3.83;;
24279;SDS011;12395;42.808;23.408;2023-07-29T07:03:21;6.82;;;3.90;;
24279;SDS011;12395;42.808;23.408;2023-07-29T07:05:46;6.53;;;3.97;;
24279;SDS011;12395;42.808;23.408;2023-07-29T07:08:12;6.03;;;3.78;;
24279;SDS011;12395;42.808;23.408;2023-07-29T07:10:37;6.18;;;4.10;;
24279;SDS011;12395;42.808;23.408;2023-07-29T07:13:02;5.75;;;3.80;;
24279;SDS011;12395;42.808;23.408;2023-07-29T07:15:28;4.32;;;3.50;;
24279;SDS011;12395;42.808;23.408;2023-07-29T07:17:53;6.10;;;3.75;;
24279;SDS011;12395;42.808;23.408;2023-07-29T07:20:18;6.20;;;3.70;;
24279;SDS011;12395;42.808;23.408;2023-07-29T07:22:44;5.90;;;3.80;;
24279;SDS011;12395;42.808;23.408;2023-07-29T07:25:09;5.43;;;3.50;;
24279;SDS011;12395;42.808;23.408;2023-07-29T07:27:35;5.43;;;3.67;;
24279;SDS011;12395;42.808;23.408;2023-07-29T07:30:01;5.17;;;3.50;;
24279;SDS011;12395;42.808;23.408;2023-07-29T07:32:27;4.15;;;3.30;;
24279;SDS011;12395;42.808;23.408;2023-07-29T07:34:52;6.50;;;3.83;;
24279;SDS011;12395;42.808;23.408;2023-07-29T07:37:18;6.65;;;3.70;;
24279;SDS011;12395;42.808;23.408;2023-07-29T07:39:43;4.97;;;3.30;;
24279;SDS011;12395;42.808;23.408;2023-07-29T07:42:08;5.22;;;3.60;;
24279;SDS011;12395;42.808;23.408;2023-07-29T07:44:34;4.47;;;3.30;;
24279;SDS011;12395;42.808;23.408;2023-07-29T07:46:59;5.32;;;3.42;;
24279;SDS011;12395;42.808;23.408;2023-07-29T07:49:25;4.55;;;3.67;;
24279;SDS011;12395;42.808;23.408;2023-07-29T07:51:50;5.55;;;3.50;;
24279;SDS011;12395;42.808;23.408;2023-07-29T07:54:15;4.97;;;3.38;;
24279;SDS011;12395;42.808;23.408;2023-07-29T07:56:42;6.07;;;3.40;;
24279;SDS011;12395;42.808;23.408;2023-07-29T07:59:08;5.80;;;3.50;;
24279;SDS011;12395;42.808;23.408;2023-07-29T08:01:36;5.10;;;3.50;;
24279;SDS011;12395;42.808;23.408;2023-07-29T08:04:05;5.13;;;3.30;;
24279;SDS011;12395;42.808;23.408;2023-07-29T08:06:31;5.20;;;3.13;;
24279;SDS011;12395;42.808;23.408;2023-07-29T08:08:57;5.00;;;2.90;;
24279;SDS011;12395;42.808;23.408;2023-07-29T08:11:24;4.10;;;3.00;;
24279;SDS011;12395;42.808;23.408;2023-07-29T08:13:50;4.30;;;3.08;;
24279;SDS011;12395;42.808;23.408;2023-07-29T08:16:15;4.03;;;2.75;;
24279;SDS011;12395;42.808;23.408;2023-07-29T08:18:40;3.28;;;2.38;;
24279;SDS011;12395;42.808;23.408;2023-07-29T08:21:06;6.45;;;2.97;;
24279;SDS011;12395;42.808;23.408;2023-07-29T08:23:32;3.92;;;2.60;;
24279;SDS011;12395;42.808;23.408;2023-07-29T08:30:55;4.28;;;2.80;;
24279;SDS011;12395;42.808;23.408;2023-07-29T08:33:21;5.32;;;2.90;;
24279;SDS011;12395;42.808;23.408;2023-07-29T08:35:46;5.25;;;3.30;;
24279;SDS011;12395;42.808;23.408;2023-07-29T08:38:12;5.10;;;3.03;;
24279;SDS011;12395;42.808;23.408;2023-07-29T08:40:37;4.40;;;3.03;;
24279;SDS011;12395;42.808;23.408;2023-07-29T08:43:21;4.32;;;2.88;;
24279;SDS011;12395;42.808;23.408;2023-07-29T08:45:53;4.05;;;2.80;;
24279;SDS011;12395;42.808;23.408;2023-07-29T08:48:19;4.53;;;2.83;;
24279;SDS011;12395;42.808;23.408;2023-07-29T08:50:54;4.47;;;2.90;;
24279;SDS011;12395;42.808;23.408;2023-07-29T08:53:20;4.30;;;2.53;;
24279;SDS011;12395;42.808;23.408;2023-07-29T08:55:46;4.32;;;2.50;;
24279;SDS011;12395;42.808;23.408;2023-07-29T08:58:12;4.00;;;2.28;;
24279;SDS011;12395;42.808;23.408;2023-07-29T09:00:37;3.05;;;2.28;;
24279;SDS011;12395;42.808;23.408;2023-07-29T09:03:04;3.42;;;2.30;;
24279;SDS011;12395;42.808;23.408;2023-07-29T09:07:58;3.58;;;2.50;;
24279;SDS011;12395;42.808;23.408;2023-07-29T09:10:24;3.08;;;2.42;;
24279;SDS011;12395;42.808;23.408;2023-07-29T09:15:26;4.45;;;2.80;;
24279;SDS011;12395;42.808;23.408;2023-07-29T09:17:53;4.85;;;2.75;;
24279;SDS011;12395;42.808;23.408;2023-07-29T09:20:23;4.15;;;2.40;;
24279;SDS011;12395;42.808;23.408;2023-07-29T09:22:57;3.90;;;2.50;;
24279;SDS011;12395;42.808;23.408;2023-07-29T09:25:25;3.00;;;2.42;;
24279;SDS011;12395;42.808;23.408;2023-07-29T09:27:51;3.90;;;2.80;;
24279;SDS011;12395;42.808;23.408;2023-07-29T09:30:17;3.78;;;2.50;;
24279;SDS011;12395;42.808;23.408;2023-07-29T09:32:43;6.22;;;3.10;;
24279;SDS011;12395;42.808;23.408;2023-07-29T09:35:11;9.57;;;3.10;;
24279;SDS011;12395;42.808;23.408;2023-07-29T09:37:38;3.92;;;2.70;;
24279;SDS011;12395;42.808;23.408;2023-07-29T09:40:04;4.13;;;2.60;;
24279;SDS011;12395;42.808;23.408;2023-07-29T09:44:57;2.78;;;2.30;;
24279;SDS011;12395;42.808;23.408;2023-07-29T09:47:22;3.92;;;2.38;;
24279;SDS011;12395;42.808;23.408;2023-07-29T09:52:22;3.67;;;2.40;;
24279;SDS011;12395;42.808;23.408;2023-07-29T09:54:48;3.67;;;2.45;;
24279;SDS011;12395;42.808;23.408;2023-07-29T09:57:14;4.32;;;2.38;;
24279;SDS011;12395;42.808;23.408;2023-07-29T10:02:16;3.20;;;2.10;;
24279;SDS011;12395;42.808;23.408;2023-07-29T10:04:42;4.88;;;2.40;;
24279;SDS011;12395;42.808;23.408;2023-07-29T10:07:08;5.63;;;2.53;;
24279;SDS011;12395;42.808;23.408;2023-07-29T10:09:35;3.70;;;2.13;;
24279;SDS011;12395;42.808;23.408;2023-07-29T10:12:03;3.13;;;2.10;;
24279;SDS011;12395;42.808;23.408;2023-07-29T10:14:30;2.92;;;2.20;;
24279;SDS011;12395;42.808;23.408;2023-07-29T10:16:56;2.70;;;2.05;;
24279;SDS011;12395;42.808;23.408;2023-07-29T10:19:22;2.33;;;2.00;;
24279;SDS011;12395;42.808;23.408;2023-07-29T10:21:52;2.67;;;1.98;;
24279;SDS011;12395;42.808;23.408;2023-07-29T10:24:22;3.55;;;2.30;;
24279;SDS011;12395;42.808;23.408;2023-07-29T10:26:55;3.08;;;1.95;;
24279;SDS011;12395;42.808;23.408;2023-07-29T10:29:23;3.47;;;1.98;;
24279;SDS011;12395;42.808;23.408;2023-07-29T10:31:49;3.47;;;2.15;;
24279;SDS011;12395;42.808;23.408;2023-07-29T10:34:18;3.35;;;2.00;;
24279;SDS011;12395;42.808;23.408;2023-07-29T10:36:46;4.70;;;2.40;;
24279;SDS011;12395;42.808;23.408;2023-07-29T10:39:13;3.05;;;2.13;;
24279;SDS011;12395;42.808;23.408;2023-07-29T10:41:58;2.40;;;2.05;;
24279;SDS011;12395;42.808;23.408;2023-07-29T10:47:16;4.47;;;2.10;;
24279;SDS011;12395;42.808;23.408;2023-07-29T10:49:47;2.00;;;1.80;;
24279;SDS011;12395;42.808;23.408;2023-07-29T10:52:15;2.38;;;1.88;;
24279;SDS011;12395;42.808;23.408;2023-07-29T10:54:45;2.85;;;1.95;;
24279;SDS011;12395;42.808;23.408;2023-07-29T10:57:12;2.42;;;1.77;;
24279;SDS011;12395;42.808;23.408;2023-07-29T10:59:39;1.95;;;1.75;;
24279;SDS011;12395;42.808;23.408;2023-07-29T11:02:11;2.85;;;1.73;;
24279;SDS011;12395;42.808;23.408;2023-07-29T11:04:51;2.40;;;1.75;;
24279;SDS011;12395;42.808;23.408;2023-07-29T11:09:51;2.15;;;1.30;;
24279;SDS011;12395;42.808;23.408;2023-07-29T11:17:35;2.58;;;1.30;;
24279;SDS011;12395;42.808;23.408;2023-07-29T11:20:31;1.95;;;1.30;;
24279;SDS011;12395;42.808;23.408;2023-07-29T11:22:58;1.60;;;1.30;;
24279;SDS011;12395;42.808;23.408;2023-07-29T11:25:28;1.92;;;1.40;;
24279;SDS011;12395;42.808;23.408;2023-07-29T11:27:56;1.80;;;1.48;;
24279;SDS011;12395;42.808;23.408;2023-07-29T11:30:23;1.80;;;1.40;;
24279;SDS011;12395;42.808;23.408;2023-07-29T11:32:52;1.77;;;1.25;;
24279;SDS011;12395;42.808;23.408;2023-07-29T11:35:19;1.35;;;1.10;;
24279;SDS011;12395;42.808;23.408;2023-07-29T11:37:45;4.90;;;1.48;;
24279;SDS011;12395;42.808;23.408;2023-07-29T11:43:06;2.03;;;1.40;;
24279;SDS011;12395;42.808;23.408;2023-07-29T11:45:31;2.65;;;1.58;;
24279;SDS011;12395;42.808;23.408;2023-07-29T11:47:58;4.57;;;1.60;;
24279;SDS011;12395;42.808;23.408;2023-07-29T11:50:23;3.20;;;1.60;;
24279;SDS011;12395;42.808;23.408;2023-07-29T11:52:49;2.30;;;1.70;;
24279;SDS011;12395;42.808;23.408;2023-07-29T11:55:14;2.03;;;1.50;;
24279;SDS011;12395;42.808;23.408;2023-07-29T11:57:41;2.95;;;2.10;;
24279;SDS011;12395;42.808;23.408;2023-07-29T12:02:36;2.22;;;1.52;;
24279;SDS011;12395;42.808;23.408;2023-07-29T12:05:07;3.10;;;1.60;;
24279;SDS011;12395;42.808;23.408;2023-07-29T12:07:34;2.13;;;1.58;;
24279;SDS011;12395;42.808;23.408;2023-07-29T12:10:00;3.20;;;1.70;;
24279;SDS011;12395;42.808;23.408;2023-07-29T12:12:28;2.03;;;1.60;;
24279;SDS011;12395;42.808;23.408;2023-07-29T12:14:54;2.73;;;1.57;;
24279;SDS011;12395;42.808;23.408;2023-07-29T12:17:20;3.80;;;1.30;;
24279;SDS011;12395;42.808;23.408;2023-07-29T12:19:45;2.73;;;1.37;;
24279;SDS011;12395;42.808;23.408;2023-07-29T12:22:10;2.97;;;1.53;;
24279;SDS011;12395;42.808;23.408;2023-07-29T12:24:37;1.43;;;1.30;;
24279;SDS011;12395;42.808;23.408;2023-07-29T12:27:04;1.85;;;1.40;;
24279;SDS011;12395;42.808;23.408;2023-07-29T12:29:30;1.97;;;1.40;;
24279;SDS011;12395;42.808;23.408;2023-07-29T12:31:59;1.57;;;1.40;;
24279;SDS011;12395;42.808;23.408;2023-07-29T12:34:27;2.47;;;1.48;;
24279;SDS011;12395;42.808;23.408;2023-07-29T12:36:54;1.45;;;1.30;;
24279;SDS011;12395;42.808;23.408;2023-07-29T12:41:47;2.13;;;1.30;;
24279;SDS011;12395;42.808;23.408;2023-07-29T12:44:14;1.60;;;1.20;;
24279;SDS011;12395;42.808;23.408;2023-07-29T12:46:39;4.13;;;1.40;;
24279;SDS011;12395;42.808;23.408;2023-07-29T12:49:05;1.23;;;1.13;;
24279;SDS011;12395;42.808;23.408;2023-07-29T12:51:31;1.57;;;1.00;;
24279;SDS011;12395;42.808;23.408;2023-07-29T12:53:56;1.40;;;1.30;;
24279;SDS011;12395;42.808;23.408;2023-07-29T12:56:22;1.50;;;1.40;;
24279;SDS011;12395;42.808;23.408;2023-07-29T12:58:47;1.87;;;1.70;;
24279;SDS011;12395;42.808;23.408;2023-07-29T13:01:13;2.23;;;1.73;;
24279;SDS011;12395;42.808;23.408;2023-07-29T13:03:42;1.85;;;1.50;;
24279;SDS011;12395;42.808;23.408;2023-07-29T13:06:11;1.77;;;1.60;;
24279;SDS011;12395;42.808;23.408;2023-07-29T13:08:37;2.10;;;1.37;;
24279;SDS011;12395;42.808;23.408;2023-07-29T13:11:02;2.13;;;1.43;;
24279;SDS011;12395;42.808;23.408;2023-07-29T13:13:29;2.15;;;1.40;;
24279;SDS011;12395;42.808;23.408;2023-07-29T13:15:54;1.60;;;1.50;;
24279;SDS011;12395;42.808;23.408;2023-07-29T13:18:20;2.27;;;1.60;;
24279;SDS011;12395;42.808;23.408;2023-07-29T13:23:12;2.08;;;1.60;;
24279;SDS011;12395;42.808;23.408;2023-07-29T13:25:37;2.10;;;1.50;;
24279;SDS011;12395;42.808;23.408;2023-07-29T13:28:03;3.03;;;1.50;;
24279;SDS011;12395;42.808;23.408;2023-07-29T13:30:28;2.00;;;1.80;;
24279;SDS011;12395;42.808;23.408;2023-07-29T13:32:54;2.10;;;1.50;;
24279;SDS011;12395;42.808;23.408;2023-07-29T13:35:19;1.87;;;1.60;;
24279;SDS011;12395;42.808;23.408;2023-07-29T13:37:45;2.00;;;1.53;;
24279;SDS011;12395;42.808;23.408;2023-07-29T13:40:10;2.20;;;1.50;;
24279;SDS011;12395;42.808;23.408;2023-07-29T13:42:36;3.10;;;1.90;;
24279;SDS011;12395;42.808;23.408;2023-07-29T13:45:01;2.03;;;1.60;;
24279;SDS011;12395;42.808;23.408;2023-07-29T13:47:27;2.50;;;1.90;;
24279;SDS011;12395;42.808;23.408;2023-07-29T13:49:53;2.00;;;1.60;;
24279;SDS011;12395;42.808;23.408;2023-07-29T13:52:18;2.20;;;1.58;;
24279;SDS011;12395;42.808;23.408;2023-07-29T13:54:43;1.60;;;1.40;;
24279;SDS011;12395;42.808;23.408;2023-07-29T13:57:09;1.73;;;1.33;;
24279;SDS011;12395;42.808;23.408;2023-07-29T13:59:35;1.70;;;1.47;;
24279;SDS011;12395;42.808;23.408;2023-07-29T14:02:03;2.38;;;1.50;;
24279;SDS011;12395;42.808;23.408;2023-07-29T14:04:29;1.65;;;1.42;;
24279;SDS011;12395;42.808;23.408;2023-07-29T14:06:55;2.15;;;1.50;;
24279;SDS011;12395;42.808;23.408;2023-07-29T14:09:20;1.90;;;1.70;;
24279;SDS011;12395;42.808;23.408;2023-07-29T14:11:45;1.60;;;1.50;;
24279;SDS011;12395;42.808;23.408;2023-07-29T14:14:11;1.48;;;1.38;;
24279;SDS011;12395;42.808;23.408;2023-07-29T14:16:36;1.52;;;1.42;;
24279;SDS011;12395;42.808;23.408;2023-07-29T14:19:02;2.55;;;1.52;;
24279;SDS011;12395;42.808;23.408;2023-07-29T14:21:27;1.77;;;1.47;;
24279;SDS011;12395;42.808;23.408;2023-07-29T14:23:53;1.40;;;1.30;;
24279;SDS011;12395;42.808;23.408;2023-07-29T14:26:18;1.35;;;1.25;;
24279;SDS011;12395;42.808;23.408;2023-07-29T14:28:43;2.07;;;1.40;;
24279;SDS011;12395;42.808;23.408;2023-07-29T14:31:09;1.83;;;1.40;;
24279;SDS011;12395;42.808;23.408;2023-07-29T14:33:34;1.73;;;1.42;;
24279;SDS011;12395;42.808;23.408;2023-07-29T14:36:00;4.00;;;1.75;;
24279;SDS011;12395;42.808;23.408;2023-07-29T14:38:25;2.55;;;1.45;;
24279;SDS011;12395;42.808;23.408;2023-07-29T14:40:51;1.60;;;1.33;;
24279;SDS011;12395;42.808;23.408;2023-07-29T14:43:19;2.10;;;1.35;;
24279;SDS011;12395;42.808;23.408;2023-07-29T14:45:45;1.67;;;1.40;;
24279;SDS011;12395;42.808;23.408;2023-07-29T14:48:10;1.40;;;1.30;;
24279;SDS011;12395;42.808;23.408;2023-07-29T14:50:35;2.25;;;1.30;;
24279;SDS011;12395;42.808;23.408;2023-07-29T14:53:01;2.17;;;1.50;;
24279;SDS011;12395;42.808;23.408;2023-07-29T14:55:26;1.65;;;1.30;;
24279;SDS011;12395;42.808;23.408;2023-07-29T14:57:51;1.70;;;1.27;;
24279;SDS011;12395;42.808;23.408;2023-07-29T15:00:17;1.67;;;1.38;;
24279;SDS011;12395;42.808;23.408;2023-07-29T15:02:42;1.52;;;1.35;;
24279;SDS011;12395;42.808;23.408;2023-07-29T15:05:08;1.50;;;1.30;;
24279;SDS011;12395;42.808;23.408;2023-07-29T15:07:33;1.88;;;1.60;;
24279;SDS011;12395;42.808;23.408;2023-07-29T15:09:58;1.50;;;1.30;;
24279;SDS011;12395;42.808;23.408;2023-07-29T15:12:24;3.63;;;1.40;;
24279;SDS011;12395;42.808;23.408;2023-07-29T15:14:49;2.45;;;1.35;;